Ashby, Massachusetts
Current Conditions -  °F | °C
As of 8:52 PM on Sunday 25 Jan 2015 (Local Time) from KFIT Reporting Station
Clear Clear  
Wind Chill: 12°   Ceiling: Unl
Heat Index: 21°   Visibility: 10mi
Dew Point:   Wind: 7mph
Humidity: 48%   Direction: 310°NW
Pressure: 29.96"   Gusts: NA
Location:  42.68°N, 71.82°W
Report Text: KFIT 260152Z AUTO 31006KT 10SM CLR M06/M16 A2996 RMK AO2 SLP149 T10611156
Loading
Personal Weather Stations






























Interactive Weather Map New forecast layout! Learn more

10-Day Weather Forecast

Advertisements
Track Severe Weather on mobile